createdAt,value
2023-04-02T00:00:09.964Z,101337.81
2023-04-02T00:03:02.134Z,101337.69
2023-04-02T00:05:31.769Z,101345.47
2023-04-02T00:08:05.080Z,101341.25
2023-04-02T00:10:38.211Z,101346.31
2023-04-02T00:13:19.674Z,101349.97
2023-04-02T00:15:54.800Z,101353.00
2023-04-02T00:18:22.063Z,101357.28
2023-04-02T00:21:00.240Z,101361.81
2023-04-02T00:23:32.135Z,101364.41
2023-04-02T00:25:58.692Z,101360.84
2023-04-02T00:28:26.082Z,101365.25
2023-04-02T00:30:58.266Z,101371.69
2023-04-02T00:33:28.317Z,101373.66
2023-04-02T00:35:59.144Z,101370.63
2023-04-02T00:38:33.008Z,101383.53
2023-04-02T00:41:03.625Z,101380.59
2023-04-02T00:43:35.506Z,101392.25
2023-04-02T00:46:11.663Z,101399.56
2023-04-02T00:48:48.810Z,101405.72
2023-04-02T00:51:34.128Z,101416.47
2023-04-02T00:54:06.194Z,101416.22
2023-04-02T00:56:42.475Z,101426.97
2023-04-02T00:59:20.621Z,101419.03
2023-04-02T01:01:52.282Z,101434.94
2023-04-02T01:04:34.148Z,101435.81
2023-04-02T01:07:03.672Z,101434.19
2023-04-02T01:09:42.156Z,101444.97
2023-04-02T01:12:14.546Z,101443.94
2023-04-02T01:14:48.891Z,101446.34
2023-04-02T01:17:44.381Z,101457.97
2023-04-02T01:20:37.510Z,101466.75
2023-04-02T01:23:34.804Z,101466.84
2023-04-02T01:26:04.259Z,101475.66
2023-04-02T01:29:06.462Z,101474.94
2023-04-02T01:31:34.067Z,101471.03
2023-04-02T01:34:03.878Z,101467.50
2023-04-02T01:36:50.150Z,101479.97
2023-04-02T01:39:22.524Z,101485.66
2023-04-02T01:42:13.400Z,101486.94
2023-04-02T01:44:50.409Z,101496.34
2023-04-02T01:47:24.686Z,101501.28
2023-04-02T01:50:06.338Z,101512.03
2023-04-02T01:52:45.693Z,101508.69
2023-04-02T01:55:14.927Z,101521.03
2023-04-02T01:57:46.682Z,101522.25
2023-04-02T02:00:15.933Z,101519.66
2023-04-02T02:02:46.668Z,101534.97
2023-04-02T02:05:19.189Z,101528.53
2023-04-02T02:07:45.722Z,101544.28
2023-04-02T02:10:49.123Z,101548.41
2023-04-02T02:13:19.922Z,101555.25
2023-04-02T02:15:47.860Z,101549.97
2023-04-02T02:18:23.910Z,101554.38
2023-04-02T02:20:52.038Z,101562.72
2023-04-02T02:23:19.631Z,101570.97
2023-04-02T02:25:46.930Z,101573.94
2023-04-02T02:28:22.891Z,101582.31
2023-04-02T02:31:02.550Z,101573.94
2023-04-02T02:33:34.120Z,101584.03
2023-04-02T02:36:07.610Z,101584.84
2023-04-02T02:38:33.933Z,101585.06
2023-04-02T02:41:23.437Z,101588.16
2023-04-02T02:44:10.973Z,101591.41
2023-04-02T02:46:45.740Z,101589.03
2023-04-02T02:49:41.725Z,101596.78
2023-04-02T02:52:20.369Z,101604.25
2023-04-02T02:54:54.724Z,101618.31
2023-04-02T02:57:25.008Z,101615.72
2023-04-02T02:59:54.286Z,101620.16
2023-04-02T03:02:21.890Z,101633.69
2023-04-02T03:04:57.730Z,101635.88
2023-04-02T03:07:27.919Z,101649.03
2023-04-02T03:10:29.638Z,101647.75
2023-04-02T03:13:17.703Z,101658.88
2023-04-02T03:15:59.275Z,101665.09
2023-04-02T03:19:02.839Z,101673.44
2023-04-02T03:21:50.501Z,101673.53
2023-04-02T03:24:38.775Z,101680.50
2023-04-02T03:27:20.302Z,101694.22
2023-04-02T03:30:03.164Z,101689.78
2023-04-02T03:32:34.756Z,101711.97
2023-04-02T03:35:27.196Z,101715.44
2023-04-02T03:38:00.542Z,101711.44
2023-04-02T03:40:42.183Z,101714.91
2023-04-02T03:43:23.613Z,101729.34
2023-04-02T03:45:54.914Z,101729.47
2023-04-02T03:48:31.292Z,101737.09
2023-04-02T03:51:07.159Z,101750.91
2023-04-02T03:53:34.163Z,101753.97
2023-04-02T03:56:01.971Z,101755.53
2023-04-02T03:58:37.002Z,101762.44
2023-04-02T04:01:29.594Z,101759.34
2023-04-02T04:04:06.468Z,101764.72
2023-04-02T04:06:46.865Z,101767.81
2023-04-02T04:09:25.022Z,101779.25
2023-04-02T04:12:08.056Z,101788.34
2023-04-02T04:14:44.838Z,101781.59
2023-04-02T04:17:39.365Z,101800.19
2023-04-02T04:20:21.907Z,101799.31
2023-04-02T04:22:52.225Z,101809.31
2023-04-02T04:25:28.318Z,101814.72
2023-04-02T04:28:16.060Z,101820.19
2023-04-02T04:31:01.083Z,101820.38
2023-04-02T04:33:33.584Z,101824.84
2023-04-02T04:36:03.291Z,101830.50
2023-04-02T04:38:35.616Z,101836.25
2023-04-02T04:41:13.103Z,101846.25
2023-04-02T04:43:56.286Z,101850.91
2023-04-02T04:46:35.130Z,101859.28
2023-04-02T04:49:32.593Z,101858.75
2023-04-02T04:52:17.776Z,101873.03
2023-04-02T04:54:46.499Z,101869.81
2023-04-02T04:57:35.336Z,101886.81
2023-04-02T05:00:27.003Z,101890.16
2023-04-02T05:03:22.216Z,101889.94
2023-04-02T05:05:49.280Z,101900.34
2023-04-02T05:08:33.563Z,101913.75
2023-04-02T05:11:13.701Z,101907.50
2023-04-02T05:13:54.276Z,101921.41
2023-04-02T05:16:28.754Z,101925.19
2023-04-02T05:19:00.895Z,101932.59
2023-04-02T05:21:44.511Z,101937.47
2023-04-02T05:24:28.964Z,101943.47
2023-04-02T05:27:02.197Z,101955.59
2023-04-02T05:29:35.212Z,101960.97
2023-04-02T05:32:15.648Z,101966.41
2023-04-02T05:34:46.260Z,101966.94
2023-04-02T05:37:19.989Z,101970.28
2023-04-02T05:39:56.351Z,101983.22
2023-04-02T05:42:27.149Z,101991.34
2023-04-02T05:45:03.048Z,101997.41
2023-04-02T05:47:31.863Z,101991.72
2023-04-02T05:50:04.352Z,102001.47
2023-04-02T05:52:36.214Z,102013.88
2023-04-02T05:55:26.314Z,102027.28
2023-04-02T05:58:33.873Z,102028.59
2023-04-02T06:01:10.966Z,102030.94
2023-04-02T06:03:54.466Z,102042.44
2023-04-02T06:06:48.206Z,102040.56
2023-04-02T06:09:27.130Z,102054.38
2023-04-02T06:12:10.614Z,102065.41
2023-04-02T06:14:36.977Z,102070.13
2023-04-02T06:17:03.470Z,102081.94
2023-04-02T06:19:35.499Z,102092.19
2023-04-02T06:22:29.487Z,102104.47
2023-04-02T06:25:09.494Z,102104.59
2023-04-02T06:27:37.179Z,102098.81
2023-04-02T06:30:09.113Z,102109.63
2023-04-02T06:32:35.519Z,102107.69
2023-04-02T06:35:01.959Z,102114.72
2023-04-02T06:37:46.045Z,102121.06
2023-04-02T06:40:33.625Z,102130.31
2023-04-02T06:43:05.886Z,102127.31
2023-04-02T06:45:39.519Z,102143.44
2023-04-02T06:48:12.681Z,102141.03
2023-04-02T06:50:47.961Z,102144.53
2023-04-02T06:53:35.088Z,102150.50
2023-04-02T06:56:07.964Z,102154.25
2023-04-02T06:58:35.373Z,102152.97
2023-04-02T07:01:01.791Z,102168.84
2023-04-02T07:03:32.487Z,102163.91
2023-04-02T07:06:01.947Z,102181.41
2023-04-02T07:08:28.399Z,102183.56
2023-04-02T07:10:56.346Z,102193.72
2023-04-02T07:13:27.010Z,102199.00
2023-04-02T07:15:55.893Z,102210.19
2023-04-02T07:18:32.972Z,102196.63
2023-04-02T07:21:01.355Z,102208.06
2023-04-02T07:23:27.704Z,102217.09
2023-04-02T07:25:55.562Z,102223.34
2023-04-02T07:28:27.823Z,102223.59
2023-04-02T07:30:54.833Z,102247.06
2023-04-02T07:33:28.486Z,102239.69
2023-04-02T07:36:03.502Z,102248.94
2023-04-02T07:38:29.850Z,102253.56
2023-04-02T07:41:05.857Z,102256.66
2023-04-02T07:43:35.374Z,102264.75
2023-04-02T07:46:07.170Z,102263.88
2023-04-02T07:48:33.602Z,102266.97
2023-04-02T07:51:00.983Z,102271.19
2023-04-02T07:53:33.741Z,102268.69
2023-04-02T07:56:02.444Z,102282.75
2023-04-02T07:58:35.625Z,102275.16
2023-04-02T08:01:02.949Z,102282.13
2023-04-02T08:03:31.743Z,102278.88
2023-04-02T08:06:04.130Z,102290.50
2023-04-02T08:08:30.478Z,102288.94
2023-04-02T08:10:58.606Z,102303.88
2023-04-02T08:13:24.919Z,102301.22
2023-04-02T08:15:51.253Z,102300.03
2023-04-02T08:18:17.553Z,102301.94
2023-04-02T08:20:43.832Z,102311.97
2023-04-02T08:23:14.776Z,102324.84
2023-04-02T08:25:48.704Z,102322.16
2023-04-02T08:28:15.377Z,102327.09
2023-04-02T08:30:42.503Z,102331.19
2023-04-02T08:33:13.254Z,102335.94
2023-04-02T08:35:41.525Z,102327.97
2023-04-02T08:38:07.834Z,102350.72
2023-04-02T08:40:37.698Z,102348.34
2023-04-02T08:43:36.763Z,102355.69
2023-04-02T08:46:22.068Z,102360.78
2023-04-02T08:48:53.497Z,102358.25
2023-04-02T08:51:25.745Z,102365.38
2023-04-02T08:53:56.172Z,102378.91
2023-04-02T08:56:47.479Z,102384.69
2023-04-02T08:59:43.338Z,102385.78
2023-04-02T09:02:39.121Z,102395.66
2023-04-02T09:05:08.059Z,102399.63
2023-04-02T09:07:34.759Z,102404.56
2023-04-02T09:10:01.645Z,102400.72
2023-04-02T09:12:31.977Z,102411.22
2023-04-02T09:15:16.490Z,102418.09
2023-04-02T09:17:53.170Z,102418.22
2023-04-02T09:20:25.194Z,102421.09
2023-04-02T09:22:53.513Z,102432.88
2023-04-02T09:25:28.228Z,102433.97
2023-04-02T09:27:57.368Z,102440.09
2023-04-02T09:30:44.582Z,102448.16
2023-04-02T09:33:10.981Z,102456.09
2023-04-02T09:35:55.065Z,102450.88
2023-04-02T09:38:24.481Z,102460.25
2023-04-02T09:40:53.741Z,102467.06
2023-04-02T09:43:31.359Z,102464.97
2023-04-02T09:46:24.500Z,102461.91
2023-04-02T09:48:54.732Z,102452.38
2023-04-02T09:51:23.890Z,102451.38
2023-04-02T09:54:05.627Z,102448.63
2023-04-02T09:56:34.860Z,102457.50
2023-04-02T09:59:18.878Z,102458.97
2023-04-02T10:01:54.275Z,102467.28
2023-04-02T10:04:43.806Z,102470.91
2023-04-02T10:07:36.075Z,102458.72
2023-04-02T10:10:20.825Z,102477.53
2023-04-02T10:13:01.456Z,102474.94
2023-04-02T10:15:55.104Z,102468.38
2023-04-02T10:18:44.307Z,102475.75
2023-04-02T10:21:19.255Z,102480.53
2023-04-02T10:23:45.641Z,102481.44
2023-04-02T10:26:11.965Z,102474.09
2023-04-02T10:29:07.412Z,102482.63
2023-04-02T10:32:05.513Z,102475.69
2023-04-02T10:34:58.017Z,102486.31
2023-04-02T10:37:44.632Z,102482.81
2023-04-02T10:40:36.625Z,102487.75
2023-04-02T10:43:15.103Z,102496.41
2023-04-02T10:45:49.613Z,102487.09
2023-04-02T10:48:46.248Z,102488.63
2023-04-02T10:52:00.665Z,102488.72
2023-04-02T10:54:48.278Z,102490.22
2023-04-02T10:57:28.091Z,102488.50
2023-04-02T11:00:13.017Z,102486.53
2023-04-02T11:02:48.334Z,102496.03
2023-04-02T11:05:45.914Z,102505.38
2023-04-02T11:08:26.171Z,102522.88
2023-04-02T11:11:07.134Z,102508.00
2023-04-02T11:13:41.475Z,102514.97
2023-04-02T11:16:07.859Z,102510.19
2023-04-02T11:18:35.016Z,102508.97
2023-04-02T11:21:28.375Z,102528.34
2023-04-02T11:24:02.190Z,102516.31
2023-04-02T11:26:29.977Z,102514.19
2023-04-02T11:29:19.808Z,102522.88
2023-04-02T11:31:47.524Z,102528.03
2023-04-02T11:35:03.028Z,102533.47
2023-04-02T11:37:44.148Z,102538.28
2023-04-02T11:40:13.633Z,102535.88
2023-04-02T11:42:50.084Z,102534.88
2023-04-02T11:45:25.355Z,102531.03
2023-04-02T11:48:00.926Z,102543.19
2023-04-02T11:50:33.505Z,102546.63
2023-04-02T11:53:24.414Z,102554.94
2023-04-02T11:55:53.831Z,102554.56
2023-04-02T11:58:52.859Z,102550.69
2023-04-02T12:01:59.599Z,102548.81
2023-04-02T12:05:03.936Z,102554.84
2023-04-02T12:07:30.395Z,102561.28
2023-04-02T12:10:00.519Z,102557.84
2023-04-02T12:12:34.093Z,102560.09
2023-04-02T12:15:02.965Z,102563.94
2023-04-02T12:17:35.205Z,102562.47
2023-04-02T12:20:19.211Z,102571.41
2023-04-02T12:22:51.665Z,102575.19
2023-04-02T12:25:21.208Z,102572.56
2023-04-02T12:27:47.956Z,102575.84
2023-04-02T12:30:23.728Z,102583.94
2023-04-02T12:32:56.107Z,102577.31
2023-04-02T12:35:33.107Z,102580.81
2023-04-02T12:38:00.045Z,102584.16
2023-04-02T12:40:28.081Z,102597.09
2023-04-02T12:42:54.437Z,102576.19
2023-04-02T12:45:30.013Z,102587.97
2023-04-02T12:47:57.983Z,102588.47
2023-04-02T12:50:24.451Z,102594.06
2023-04-02T12:52:52.447Z,102585.53
2023-04-02T12:55:24.762Z,102594.06
2023-04-02T12:57:59.053Z,102597.41
2023-04-02T13:00:44.090Z,102597.78
2023-04-02T13:03:20.704Z,102602.53
2023-04-02T13:05:58.992Z,102601.00
2023-04-02T13:08:30.716Z,102603.16
2023-04-02T13:11:02.999Z,102602.47
2023-04-02T13:13:44.054Z,102604.97
2023-04-02T13:16:19.371Z,102606.16
2023-04-02T13:18:47.898Z,102604.88
2023-04-02T13:21:20.303Z,102607.34
2023-04-02T13:23:46.809Z,102605.97
2023-04-02T13:26:26.575Z,102616.41
2023-04-02T13:28:57.846Z,102608.25
2023-04-02T13:31:26.420Z,102603.31
2023-04-02T13:33:52.752Z,102610.00
2023-04-02T13:36:21.968Z,102610.53
2023-04-02T13:38:55.797Z,102601.28
2023-04-02T13:41:26.992Z,102604.88
2023-04-02T13:43:54.694Z,102602.88
2023-04-02T13:46:23.841Z,102613.69
2023-04-02T13:48:51.682Z,102617.31
2023-04-02T13:53:59.770Z,102614.75
2023-04-02T13:56:26.303Z,102619.78
2023-04-02T13:58:52.857Z,102616.09
2023-04-02T14:01:21.075Z,102622.50
2023-04-02T14:03:47.488Z,102633.78
2023-04-02T14:06:51.081Z,102626.13
2023-04-02T14:09:36.958Z,102630.31
2023-04-02T14:12:06.057Z,102638.13
2023-04-02T14:14:46.427Z,102634.75
2023-04-02T14:17:35.292Z,102637.88
2023-04-02T14:20:20.377Z,102642.75
2023-04-02T14:23:19.883Z,102638.91
2023-04-02T14:26:00.775Z,102631.88
2023-04-02T14:28:59.244Z,102644.31
2023-04-02T14:31:37.100Z,102644.53
2023-04-02T14:34:16.703Z,102644.66
2023-04-02T14:37:05.158Z,102636.34
2023-04-02T14:39:50.211Z,102646.47
2023-04-02T14:42:28.388Z,102651.75
2023-04-02T14:45:33.268Z,102656.38
2023-04-02T14:48:05.225Z,102652.63
2023-04-02T14:50:38.323Z,102656.38
2023-04-02T14:53:14.587Z,102670.69
2023-04-02T14:55:43.783Z,102673.50
2023-04-02T14:58:19.989Z,102664.03
2023-04-02T15:00:53.681Z,102666.22
2023-04-02T15:03:23.214Z,102665.94
2023-04-02T15:05:55.394Z,102668.09
2023-04-02T15:08:26.444Z,102680.03
2023-04-02T15:10:55.750Z,102676.44
2023-04-02T15:13:31.862Z,102681.22
2023-04-02T15:16:13.364Z,102673.78
2023-04-02T15:18:39.862Z,102673.78
2023-04-02T15:21:18.328Z,102689.56
2023-04-02T15:24:10.638Z,102675.19
2023-04-02T15:27:00.930Z,102680.34
2023-04-02T15:29:53.991Z,102673.25
2023-04-02T15:32:39.275Z,102682.78
2023-04-02T15:35:08.571Z,102686.47
2023-04-02T15:38:29.678Z,102677.78
2023-04-02T15:41:03.363Z,102694.13
2023-04-02T15:43:48.808Z,102682.38
2023-04-02T15:46:18.432Z,102691.47
2023-04-02T15:48:58.077Z,102687.75
2023-04-02T15:51:38.786Z,102695.06
2023-04-02T15:54:39.640Z,102699.78
2023-04-02T15:57:38.384Z,102700.34
2023-04-02T16:00:31.502Z,102693.66
2023-04-02T16:03:20.092Z,102688.75
2023-04-02T16:06:09.742Z,102693.38
2023-04-02T16:08:47.811Z,102691.41
2023-04-02T16:11:15.218Z,102698.00
2023-04-02T16:13:44.946Z,102706.50
2023-04-02T16:16:12.719Z,102711.50
2023-04-02T16:18:49.860Z,102715.88
2023-04-02T16:21:24.348Z,102711.31
2023-04-02T16:23:50.888Z,102727.09
2023-04-02T16:26:41.167Z,102720.66
2023-04-02T16:29:53.394Z,102722.00
2023-04-02T16:32:47.898Z,102727.19
2023-04-02T16:35:42.414Z,102732.06
2023-04-02T16:38:25.007Z,102732.16
2023-04-02T16:41:08.185Z,102737.97
2023-04-02T16:43:46.217Z,102736.66
2023-04-02T16:46:41.009Z,102742.03
2023-04-02T16:49:29.969Z,102753.81
2023-04-02T16:52:16.090Z,102752.25
2023-04-02T16:55:03.727Z,102767.34
2023-04-02T16:57:33.748Z,102762.16
2023-04-02T17:00:27.058Z,102771.19
2023-04-02T17:03:25.947Z,102782.59
2023-04-02T17:06:08.323Z,102775.06
2023-04-02T17:08:44.142Z,102784.00
2023-04-02T17:11:23.486Z,102786.44
2023-04-02T17:13:56.151Z,102790.16
2023-04-02T17:16:37.673Z,102794.53
2023-04-02T17:19:09.700Z,102806.59
2023-04-02T17:21:39.575Z,102816.78
2023-04-02T17:24:24.175Z,102809.72
2023-04-02T17:27:08.070Z,102820.56
2023-04-02T17:29:41.428Z,102819.28
2023-04-02T17:32:28.461Z,102822.16
2023-04-02T17:34:56.484Z,102823.25
2023-04-02T17:37:37.057Z,102828.88
2023-04-02T17:40:27.212Z,102828.28
2023-04-02T17:42:59.602Z,102832.47
2023-04-02T17:45:37.646Z,102840.06
2023-04-02T17:48:25.552Z,102841.25
2023-04-02T17:50:51.847Z,102844.50
2023-04-02T17:53:25.896Z,102853.03
2023-04-02T17:56:19.818Z,102854.66
2023-04-02T17:58:59.622Z,102856.94
2023-04-02T18:01:50.565Z,102867.38
2023-04-02T18:04:29.925Z,102870.69
2023-04-02T18:07:07.496Z,102873.25
2023-04-02T18:09:39.418Z,102880.16
2023-04-02T18:12:09.071Z,102877.13
2023-04-02T18:15:00.185Z,102878.88
2023-04-02T18:17:32.564Z,102880.53
2023-04-02T18:20:23.808Z,102887.19
2023-04-02T18:23:05.921Z,102884.72
2023-04-02T18:25:45.491Z,102886.47
2023-04-02T18:28:43.594Z,102897.44
2023-04-02T18:31:31.597Z,102907.28
2023-04-02T18:34:25.194Z,102913.81
2023-04-02T18:37:00.437Z,102917.53
2023-04-02T18:40:00.858Z,102925.78
2023-04-02T18:42:53.457Z,102920.41
2023-04-02T18:45:31.529Z,102925.97
2023-04-02T18:48:10.153Z,102933.69
2023-04-02T18:50:38.228Z,102936.19
2023-04-02T18:53:18.506Z,102933.22
2023-04-02T18:55:50.304Z,102939.56
2023-04-02T18:58:29.109Z,102948.78
2023-04-02T19:00:56.013Z,102952.13
2023-04-02T19:03:38.890Z,102957.44
2023-04-02T19:06:17.187Z,102959.13
2023-04-02T19:08:51.904Z,102970.31
2023-04-02T19:11:23.422Z,102973.31
2023-04-02T19:13:49.732Z,102981.41
2023-04-02T19:16:31.467Z,102979.81
2023-04-02T19:19:19.679Z,102990.19
2023-04-02T19:22:07.049Z,102990.44
2023-04-02T19:24:51.667Z,102998.38
2023-04-02T19:27:35.045Z,103002.47
2023-04-02T19:30:21.944Z,102998.22
2023-04-02T19:33:23.439Z,103001.00
2023-04-02T19:36:04.392Z,103002.75
2023-04-02T19:38:57.018Z,103008.44
2023-04-02T19:41:48.287Z,103006.94
2023-04-02T19:44:18.086Z,103014.44
2023-04-02T19:46:45.316Z,103014.66
2023-04-02T19:49:30.365Z,103015.91
2023-04-02T19:51:56.719Z,103020.00
2023-04-02T19:54:23.278Z,103024.59
2023-04-02T19:56:54.812Z,103023.34
2023-04-02T19:59:26.901Z,103024.31
2023-04-02T20:01:53.228Z,103025.25
2023-04-02T20:04:19.652Z,103027.00
2023-04-02T20:06:46.214Z,103018.69
2023-04-02T20:09:12.695Z,103031.59
2023-04-02T20:11:41.968Z,103031.94
2023-04-02T20:14:09.723Z,103025.63
2023-04-02T20:16:36.157Z,103032.72
2023-04-02T20:19:07.177Z,103038.44
2023-04-02T20:21:36.021Z,103036.22
2023-04-02T20:24:02.398Z,103044.50
2023-04-02T20:26:33.998Z,103046.59
2023-04-02T20:29:04.033Z,103040.91
2023-04-02T20:31:31.873Z,103050.56
2023-04-02T20:33:59.112Z,103059.81
2023-04-02T20:36:27.794Z,103053.97
2023-04-02T20:38:54.191Z,103058.06
2023-04-02T20:41:22.774Z,103069.91
2023-04-02T20:43:50.556Z,103075.72
2023-04-02T20:46:18.132Z,103063.38
2023-04-02T20:48:44.595Z,103075.41
2023-04-02T20:51:13.622Z,103087.09
2023-04-02T20:53:47.313Z,103082.81
2023-04-02T20:56:17.463Z,103081.47
2023-04-02T20:58:50.947Z,103087.81
2023-04-02T21:01:20.159Z,103086.91
2023-04-02T21:03:47.100Z,103092.13
2023-04-02T21:06:19.037Z,103098.25
2023-04-02T21:08:45.894Z,103101.69
2023-04-02T21:11:13.200Z,103106.25
2023-04-02T21:13:41.792Z,103103.19
2023-04-02T21:16:19.653Z,103113.00
2023-04-02T21:18:47.272Z,103105.38
2023-04-02T21:21:14.725Z,103112.75
2023-04-02T21:23:42.952Z,103119.53
2023-04-02T21:26:17.255Z,103117.56
2023-04-02T21:28:46.610Z,103127.31
2023-04-02T21:31:16.056Z,103126.75
2023-04-02T21:33:45.671Z,103134.19
2023-04-02T21:36:14.832Z,103138.81
2023-04-02T21:38:45.803Z,103138.81
2023-04-02T21:41:29.957Z,103139.84
2023-04-02T21:43:58.198Z,103146.31
2023-04-02T21:46:27.155Z,103141.47
2023-04-02T21:48:55.365Z,103137.03
2023-04-02T21:51:24.462Z,103142.06
2023-04-02T21:53:51.127Z,103141.25
2023-04-02T21:56:23.938Z,103148.41
2023-04-02T21:58:59.699Z,103145.72
2023-04-02T22:01:28.475Z,103145.03
2023-04-02T22:03:57.740Z,103142.53
2023-04-02T22:06:29.855Z,103139.91
2023-04-02T22:09:02.286Z,103142.66
2023-04-02T22:11:34.613Z,103140.34
2023-04-02T22:14:01.295Z,103145.59
2023-04-02T22:16:30.317Z,103144.13
2023-04-02T22:19:00.860Z,103143.41
2023-04-02T22:21:32.162Z,103147.88
2023-04-02T22:24:06.617Z,103151.69
2023-04-02T22:26:33.799Z,103148.22
2023-04-02T22:29:01.208Z,103152.06
2023-04-02T22:31:29.771Z,103150.19
2023-04-02T22:33:57.729Z,103151.63
2023-04-02T22:36:27.945Z,103146.75
2023-04-02T22:38:54.897Z,103148.59
2023-04-02T22:41:24.604Z,103147.53
2023-04-02T22:43:51.447Z,103153.09
2023-04-02T22:46:23.321Z,103152.19
2023-04-02T22:48:53.434Z,103150.75
2023-04-02T22:51:23.900Z,103151.94
2023-04-02T22:53:53.309Z,103158.16
2023-04-02T22:56:22.125Z,103161.78
2023-04-02T22:58:50.955Z,103162.91
2023-04-02T23:01:21.097Z,103165.16
2023-04-02T23:03:52.098Z,103170.38
2023-04-02T23:06:18.724Z,103170.72
2023-04-02T23:08:45.714Z,103168.94
2023-04-02T23:11:15.354Z,103168.19
2023-04-02T23:13:42.469Z,103165.44
2023-04-02T23:16:22.109Z,103168.06
2023-04-02T23:18:49.118Z,103173.97
2023-04-02T23:21:16.839Z,103172.97
2023-04-02T23:23:43.590Z,103175.66
2023-04-02T23:26:12.681Z,103171.63
2023-04-02T23:28:40.128Z,103175.75
2023-04-02T23:31:10.568Z,103169.91
2023-04-02T23:33:37.387Z,103169.91
2023-04-02T23:36:08.935Z,103175.06
2023-04-02T23:38:39.201Z,103179.66
2023-04-02T23:41:08.722Z,103188.69
2023-04-02T23:43:35.089Z,103185.28
2023-04-02T23:46:01.462Z,103177.94
2023-04-02T23:48:27.931Z,103189.91
2023-04-02T23:50:54.274Z,103180.19
2023-04-02T23:53:24.316Z,103189.13
2023-04-02T23:55:51.805Z,103186.66
2023-04-02T23:58:20.470Z,103189.19
